createdAt,value
2022-10-17T00:00:45.142Z,11.13
2022-10-17T00:03:12.006Z,11.15
2022-10-17T00:05:47.600Z,11.13
2022-10-17T00:08:17.029Z,11.13
2022-10-17T00:10:43.744Z,11.05
2022-10-17T00:13:11.292Z,11.03
2022-10-17T00:15:38.436Z,11.05
2022-10-17T00:18:05.318Z,10.95
2022-10-17T00:20:35.711Z,11.02
2022-10-17T00:23:02.439Z,11.05
2022-10-17T00:25:29.089Z,11.14
2022-10-17T00:27:55.843Z,11.08
2022-10-17T00:30:22.557Z,11.11
2022-10-17T00:32:49.363Z,11.08
2022-10-17T00:35:16.070Z,11.13
2022-10-17T00:37:42.790Z,11.14
2022-10-17T00:40:10.454Z,11.05
2022-10-17T00:42:37.168Z,11.03
2022-10-17T00:45:15.269Z,10.99
2022-10-17T00:47:44.712Z,10.88
2022-10-17T00:50:12.982Z,10.90
2022-10-17T00:52:40.991Z,10.76
2022-10-17T00:55:16.561Z,10.60
2022-10-17T00:57:45.298Z,10.47
2022-10-17T01:00:13.370Z,10.43
2022-10-17T01:02:41.775Z,10.49
2022-10-17T01:05:09.434Z,10.42
2022-10-17T01:07:38.083Z,10.44
2022-10-17T01:10:06.503Z,10.42
2022-10-17T01:12:52.429Z,10.33
2022-10-17T01:15:26.023Z,10.29
2022-10-17T01:18:04.154Z,10.25
2022-10-17T01:20:49.960Z,10.21
2022-10-17T01:23:38.235Z,10.17
2022-10-17T01:26:37.545Z,10.10
2022-10-17T01:29:42.552Z,10.06
2022-10-17T01:32:22.377Z,10.06
2022-10-17T01:35:00.171Z,9.98
2022-10-17T01:37:44.126Z,10.03
2022-10-17T01:40:22.808Z,10.01
2022-10-17T01:43:17.281Z,10.07
2022-10-17T01:46:00.710Z,10.01
2022-10-17T01:48:35.075Z,10.05
2022-10-17T01:51:16.954Z,10.09
2022-10-17T01:53:52.993Z,10.07
2022-10-17T01:56:22.788Z,10.06
2022-10-17T01:58:55.590Z,9.99
2022-10-17T02:01:24.723Z,9.85
2022-10-17T02:03:53.468Z,9.68
2022-10-17T02:06:20.948Z,9.68
2022-10-17T02:08:50.137Z,9.73
2022-10-17T02:11:20.245Z,9.70
2022-10-17T02:14:05.607Z,9.67
2022-10-17T02:16:32.919Z,9.68
2022-10-17T02:19:24.112Z,9.68
2022-10-17T02:22:35.404Z,9.60
2022-10-17T02:25:24.132Z,9.54
2022-10-17T02:28:22.510Z,9.57
2022-10-17T02:31:06.446Z,9.57
2022-10-17T02:33:44.334Z,9.55
2022-10-17T02:36:24.387Z,9.55
2022-10-17T02:38:52.722Z,9.47
2022-10-17T02:41:21.098Z,9.51
2022-10-17T02:43:50.556Z,9.50
2022-10-17T02:46:23.567Z,9.50
2022-10-17T02:48:53.259Z,9.44
2022-10-17T02:51:26.047Z,9.46
2022-10-17T02:54:07.053Z,9.56
2022-10-17T02:56:46.871Z,9.54
2022-10-17T02:59:17.821Z,9.50
2022-10-17T03:01:44.783Z,9.43
2022-10-17T03:04:13.990Z,9.43
2022-10-17T03:06:42.690Z,9.34
2022-10-17T03:09:09.567Z,9.36
2022-10-17T03:11:36.272Z,9.37
2022-10-17T03:14:03.022Z,9.19
2022-10-17T03:16:29.878Z,9.17
2022-10-17T03:18:56.654Z,9.21
2022-10-17T03:21:23.408Z,9.22
2022-10-17T03:23:51.299Z,9.19
2022-10-17T03:26:21.036Z,9.19
2022-10-17T03:28:50.650Z,9.15
2022-10-17T03:31:20.664Z,9.16
2022-10-17T03:33:47.817Z,9.11
2022-10-17T03:36:17.130Z,9.10
2022-10-17T03:38:46.381Z,9.09
2022-10-17T03:41:13.550Z,9.07
2022-10-17T03:43:40.721Z,9.07
2022-10-17T03:46:08.484Z,8.99
2022-10-17T03:48:36.310Z,8.98
2022-10-17T03:51:09.173Z,8.89
2022-10-17T03:53:42.027Z,8.77
2022-10-17T03:56:14.501Z,8.79
2022-10-17T03:58:42.257Z,8.76
2022-10-17T04:01:12.173Z,8.80
2022-10-17T04:03:39.506Z,8.83
2022-10-17T04:06:06.882Z,8.79
2022-10-17T04:08:35.681Z,8.88
2022-10-17T04:11:13.618Z,8.85
2022-10-17T04:13:40.870Z,8.96
2022-10-17T04:16:12.085Z,8.91
2022-10-17T04:18:45.635Z,8.79
2022-10-17T04:21:13.440Z,8.81
2022-10-17T04:23:40.343Z,8.89
2022-10-17T04:26:16.165Z,8.94
2022-10-17T04:28:43.088Z,8.93
2022-10-17T04:31:13.078Z,8.89
2022-10-17T04:33:58.580Z,8.85
2022-10-17T04:36:25.491Z,8.96
2022-10-17T04:38:52.360Z,8.81
2022-10-17T04:41:20.870Z,8.82
2022-10-17T04:43:50.964Z,8.87
2022-10-17T04:46:19.817Z,8.86
2022-10-17T04:48:47.133Z,8.85
2022-10-17T04:51:17.617Z,8.83
2022-10-17T04:54:10.469Z,8.80
2022-10-17T04:56:39.667Z,8.84
2022-10-17T04:59:06.471Z,8.84
2022-10-17T05:01:34.112Z,8.80
2022-10-17T05:04:00.761Z,8.75
2022-10-17T05:06:30.293Z,8.81
2022-10-17T05:09:14.113Z,8.80
2022-10-17T05:11:43.192Z,8.86
2022-10-17T05:14:10.554Z,8.83
2022-10-17T05:16:38.223Z,8.84
2022-10-17T05:19:05.171Z,8.89
2022-10-17T05:21:38.857Z,8.80
2022-10-17T05:24:07.393Z,8.79
2022-10-17T05:26:34.145Z,8.79
2022-10-17T05:29:05.488Z,8.66
2022-10-17T05:31:36.018Z,8.73
2022-10-17T05:34:04.512Z,8.70
2022-10-17T05:36:33.259Z,8.70
2022-10-17T05:39:01.425Z,8.77
2022-10-17T05:41:28.917Z,8.83
2022-10-17T05:43:55.672Z,8.92
2022-10-17T05:46:35.199Z,9.06
2022-10-17T05:49:03.596Z,9.13
2022-10-17T05:51:34.935Z,9.20
2022-10-17T05:54:06.445Z,9.26
2022-10-17T05:56:35.776Z,9.35
2022-10-17T05:59:03.052Z,9.49
2022-10-17T06:01:50.303Z,9.60
2022-10-17T06:04:17.370Z,9.75
2022-10-17T06:06:44.149Z,9.87
2022-10-17T06:09:10.920Z,10.03
2022-10-17T06:11:41.658Z,10.17
2022-10-17T06:14:08.760Z,10.28
2022-10-17T06:16:37.202Z,10.42
2022-10-17T06:19:04.164Z,10.52
2022-10-17T06:21:34.432Z,10.64
2022-10-17T06:24:11.656Z,10.80
2022-10-17T06:26:40.932Z,10.92
2022-10-17T06:29:09.123Z,11.08
2022-10-17T06:31:41.610Z,11.20
2022-10-17T06:34:08.288Z,11.33
2022-10-17T06:36:35.292Z,11.45
2022-10-17T06:39:02.412Z,11.56
2022-10-17T06:41:51.716Z,11.69
2022-10-17T06:44:19.793Z,11.79
2022-10-17T06:47:04.796Z,11.88
2022-10-17T06:49:34.311Z,11.96
2022-10-17T06:52:17.468Z,12.05
2022-10-17T06:55:04.858Z,12.18
2022-10-17T06:58:00.629Z,12.27
2022-10-17T07:00:47.244Z,12.35
2022-10-17T07:03:14.044Z,12.43
2022-10-17T07:05:41.903Z,12.48
2022-10-17T07:08:08.794Z,12.58
2022-10-17T07:10:38.604Z,12.65
2022-10-17T07:13:07.156Z,12.77
2022-10-17T07:15:36.919Z,12.84
2022-10-17T07:18:04.043Z,12.95
2022-10-17T07:20:30.735Z,12.96
2022-10-17T07:22:57.690Z,13.07
2022-10-17T07:25:24.674Z,13.14
2022-10-17T07:27:56.697Z,13.28
2022-10-17T07:30:24.375Z,13.34
2022-10-17T07:32:56.644Z,13.43
2022-10-17T07:35:23.395Z,13.50
2022-10-17T07:37:50.648Z,13.54
2022-10-17T07:40:19.725Z,13.66
2022-10-17T07:42:47.063Z,13.69
2022-10-17T07:45:13.817Z,13.74
2022-10-17T07:47:42.513Z,13.83
2022-10-17T07:50:10.241Z,13.85
2022-10-17T07:52:36.959Z,13.89
2022-10-17T07:55:03.835Z,13.99
2022-10-17T07:57:30.721Z,14.04
2022-10-17T07:59:57.367Z,14.12
2022-10-17T08:02:25.533Z,14.15
2022-10-17T08:04:53.362Z,14.14
2022-10-17T08:07:25.361Z,14.19
2022-10-17T08:09:55.224Z,14.16
2022-10-17T08:12:22.165Z,14.22
2022-10-17T08:14:48.861Z,14.31
2022-10-17T08:17:15.471Z,14.41
2022-10-17T08:19:42.220Z,14.42
2022-10-17T08:22:08.925Z,14.49
2022-10-17T08:24:35.707Z,14.48
2022-10-17T08:27:02.496Z,14.68
2022-10-17T08:29:29.283Z,14.77
2022-10-17T08:32:00.849Z,14.74
2022-10-17T08:34:28.216Z,14.76
2022-10-17T08:36:55.066Z,14.74
2022-10-17T08:39:21.743Z,14.76
2022-10-17T08:42:13.565Z,14.86
2022-10-17T08:45:10.824Z,14.98
2022-10-17T08:47:47.064Z,14.95
2022-10-17T08:50:54.375Z,15.10
2022-10-17T08:53:43.273Z,15.18
2022-10-17T08:56:30.333Z,15.22
2022-10-17T08:59:10.849Z,15.30
2022-10-17T09:02:01.809Z,15.31
2022-10-17T09:04:37.985Z,15.44
2022-10-17T09:07:48.409Z,15.48
2022-10-17T09:10:25.738Z,15.44
2022-10-17T09:13:19.389Z,15.54
2022-10-17T09:16:09.374Z,15.63
2022-10-17T09:18:55.274Z,15.64
2022-10-17T09:21:40.317Z,15.71
2022-10-17T09:24:16.108Z,15.74
2022-10-17T09:26:45.612Z,15.81
2022-10-17T09:29:20.496Z,15.82
2022-10-17T09:32:02.646Z,15.76
2022-10-17T09:34:32.829Z,15.80
2022-10-17T09:37:01.958Z,15.88
2022-10-17T09:39:33.130Z,15.92
2022-10-17T09:42:01.687Z,15.91
2022-10-17T09:44:40.979Z,15.84
2022-10-17T09:47:32.032Z,15.87
2022-10-17T09:49:58.754Z,15.93
2022-10-17T09:52:30.916Z,15.98
2022-10-17T09:55:01.235Z,16.06
2022-10-17T09:57:28.168Z,16.05
2022-10-17T10:00:05.178Z,16.08
2022-10-17T10:02:40.890Z,16.10
2022-10-17T10:05:19.997Z,16.18
2022-10-17T10:08:03.180Z,16.27
2022-10-17T10:10:31.870Z,16.24
2022-10-17T10:13:20.505Z,16.34
2022-10-17T10:15:49.834Z,16.45
2022-10-17T10:18:35.439Z,16.52
2022-10-17T10:21:20.329Z,16.52
2022-10-17T10:24:09.817Z,16.60
2022-10-17T10:26:41.170Z,16.66
2022-10-17T10:29:22.536Z,16.74
2022-10-17T10:31:51.519Z,16.79
2022-10-17T10:34:25.959Z,16.85
2022-10-17T10:37:01.073Z,16.99
2022-10-17T10:39:52.112Z,17.08
2022-10-17T10:42:22.478Z,17.07
2022-10-17T10:44:50.637Z,17.19
2022-10-17T10:47:22.149Z,17.23
2022-10-17T10:49:52.927Z,17.24
2022-10-17T10:52:41.494Z,17.35
2022-10-17T10:55:44.110Z,17.53
2022-10-17T10:58:32.892Z,17.61
2022-10-17T11:01:05.862Z,17.72
2022-10-17T11:03:47.796Z,17.80
2022-10-17T11:06:25.585Z,17.84
2022-10-17T11:09:24.739Z,17.76
2022-10-17T11:11:59.335Z,17.75
2022-10-17T11:14:46.979Z,17.75
2022-10-17T11:17:39.587Z,17.72
2022-10-17T11:20:06.283Z,17.70
2022-10-17T11:22:40.268Z,17.70
2022-10-17T11:25:28.763Z,17.66
2022-10-17T11:27:55.725Z,17.56
2022-10-17T11:30:27.018Z,17.54
2022-10-17T11:32:58.239Z,17.55
2022-10-17T11:35:37.336Z,17.51
2022-10-17T11:38:42.081Z,17.43
2022-10-17T11:41:15.137Z,17.39
2022-10-17T11:44:06.049Z,17.40
2022-10-17T11:46:36.029Z,17.40
2022-10-17T11:49:16.192Z,17.48
2022-10-17T11:52:06.709Z,17.55
2022-10-17T11:54:35.564Z,17.58
2022-10-17T11:57:14.068Z,17.58
2022-10-17T12:00:16.941Z,17.46
2022-10-17T12:03:11.498Z,17.47
2022-10-17T12:06:00.109Z,17.50
2022-10-17T12:08:45.109Z,17.51
2022-10-17T12:11:28.586Z,17.44
2022-10-17T12:13:56.899Z,17.41
2022-10-17T12:16:23.699Z,17.43
2022-10-17T12:19:02.422Z,17.43
2022-10-17T12:21:55.374Z,17.38
2022-10-17T12:24:40.156Z,17.37
2022-10-17T12:27:29.116Z,17.39
2022-10-17T12:30:24.535Z,17.38
2022-10-17T12:33:06.115Z,17.35
2022-10-17T12:35:35.453Z,17.39
2022-10-17T12:38:03.929Z,17.42
2022-10-17T12:40:36.582Z,17.41
2022-10-17T12:43:29.031Z,17.38
2022-10-17T12:45:57.938Z,17.42
2022-10-17T12:48:34.598Z,17.42
2022-10-17T12:51:30.847Z,17.48
2022-10-17T12:54:13.916Z,17.49
2022-10-17T12:56:45.234Z,17.65
2022-10-17T12:59:29.145Z,17.56
2022-10-17T13:02:03.512Z,17.57
2022-10-17T13:04:31.846Z,17.65
2022-10-17T13:07:01.081Z,18.31
2022-10-17T13:09:35.409Z,18.37
2022-10-17T13:12:06.413Z,18.03
2022-10-17T13:14:34.136Z,17.95
2022-10-17T13:17:03.360Z,17.92
2022-10-17T13:19:45.446Z,17.87
2022-10-17T13:22:18.689Z,17.73
2022-10-17T13:24:46.257Z,17.67
2022-10-17T13:27:31.551Z,17.73
2022-10-17T13:30:01.495Z,18.23
2022-10-17T13:32:39.749Z,18.35
2022-10-17T13:35:16.261Z,18.40
2022-10-17T13:37:50.343Z,18.07
2022-10-17T13:40:44.234Z,17.97
2022-10-17T13:43:19.508Z,17.88
2022-10-17T13:45:55.213Z,17.81
2022-10-17T13:48:25.425Z,17.76
2022-10-17T13:50:56.381Z,17.76
2022-10-17T13:53:30.608Z,17.79
2022-10-17T13:56:29.546Z,17.83
2022-10-17T13:59:05.085Z,17.77
2022-10-17T14:01:32.552Z,17.88
2022-10-17T14:04:20.087Z,17.94
2022-10-17T14:06:49.501Z,17.89
2022-10-17T14:09:23.174Z,17.92
2022-10-17T14:11:58.583Z,17.90
2022-10-17T14:14:26.659Z,17.85
2022-10-17T14:16:54.318Z,17.83
2022-10-17T14:19:31.031Z,17.81
2022-10-17T14:22:18.878Z,17.91
2022-10-17T14:24:45.972Z,18.15
2022-10-17T14:27:31.414Z,19.17
2022-10-17T14:30:01.008Z,18.56
2022-10-17T14:32:30.291Z,18.53
2022-10-17T14:35:17.852Z,18.38
2022-10-17T14:37:48.860Z,18.08
2022-10-17T14:40:24.090Z,17.90
2022-10-17T14:42:53.209Z,17.80
2022-10-17T14:45:34.687Z,17.72
2022-10-17T14:48:11.707Z,17.63
2022-10-17T14:50:38.833Z,17.58
2022-10-17T14:53:07.311Z,17.54
2022-10-17T14:55:35.549Z,17.48
2022-10-17T14:58:15.301Z,17.42
2022-10-17T15:00:42.070Z,17.37
2022-10-17T15:03:08.713Z,17.30
2022-10-17T15:05:35.614Z,17.23
2022-10-17T15:08:02.187Z,17.20
2022-10-17T15:10:33.841Z,17.16
2022-10-17T15:13:26.693Z,17.12
2022-10-17T15:15:51.928Z,17.08
2022-10-17T15:18:18.963Z,17.05
2022-10-17T15:20:45.643Z,17.02
2022-10-17T15:23:12.239Z,16.98
2022-10-17T15:25:39.441Z,16.94
2022-10-17T15:28:06.082Z,16.91
2022-10-17T15:30:36.355Z,16.87
2022-10-17T15:33:03.064Z,16.84
2022-10-17T15:35:30.325Z,16.81
2022-10-17T15:37:56.988Z,16.77
2022-10-17T15:40:26.516Z,16.70
2022-10-17T15:42:53.272Z,16.65
2022-10-17T15:45:22.301Z,16.62
2022-10-17T15:47:54.860Z,16.56
2022-10-17T15:50:21.978Z,16.53
2022-10-17T15:52:52.536Z,16.48
2022-10-17T15:55:20.076Z,16.40
2022-10-17T15:57:48.247Z,16.37
2022-10-17T16:00:18.060Z,16.35
2022-10-17T16:02:45.000Z,16.23
2022-10-17T16:05:23.501Z,16.22
2022-10-17T16:07:50.510Z,16.12
2022-10-17T16:10:18.167Z,16.16
2022-10-17T16:12:45.324Z,16.11
2022-10-17T16:15:27.946Z,16.06
2022-10-17T16:17:56.873Z,15.86
2022-10-17T16:20:24.960Z,15.87
2022-10-17T16:22:54.598Z,15.75
2022-10-17T16:25:27.053Z,15.66
2022-10-17T16:27:56.427Z,15.54
2022-10-17T16:30:25.257Z,15.37
2022-10-17T16:32:52.950Z,15.26
2022-10-17T16:35:25.428Z,15.14
2022-10-17T16:37:52.194Z,15.03
2022-10-17T16:40:19.443Z,14.85
2022-10-17T16:42:46.501Z,14.84
2022-10-17T16:45:22.250Z,14.72
2022-10-17T16:47:49.716Z,14.60
2022-10-17T16:50:16.722Z,14.55
2022-10-17T16:52:43.409Z,14.41
2022-10-17T16:55:10.199Z,14.29
2022-10-17T16:57:37.065Z,14.24
2022-10-17T17:00:06.265Z,14.14
2022-10-17T17:02:33.343Z,14.14
2022-10-17T17:05:00.313Z,14.11
2022-10-17T17:07:29.515Z,14.09
2022-10-17T17:09:56.656Z,14.02
2022-10-17T17:12:23.553Z,13.95
2022-10-17T17:14:50.184Z,13.92
2022-10-17T17:17:30.181Z,13.73
2022-10-17T17:20:03.947Z,13.65
2022-10-17T17:22:30.724Z,13.58
2022-10-17T17:24:57.467Z,13.52
2022-10-17T17:27:25.188Z,13.47
2022-10-17T17:29:51.881Z,13.43
2022-10-17T17:32:18.466Z,13.39
2022-10-17T17:34:45.319Z,13.33
2022-10-17T17:37:11.981Z,13.37
2022-10-17T17:39:38.687Z,13.32
2022-10-17T17:42:05.306Z,13.29
2022-10-17T17:44:31.970Z,13.28
2022-10-17T17:46:58.849Z,13.23
2022-10-17T17:49:25.502Z,13.15
2022-10-17T17:51:52.140Z,13.13
2022-10-17T17:54:18.791Z,13.02
2022-10-17T17:56:45.405Z,12.82
2022-10-17T17:59:13.456Z,12.79
2022-10-17T18:01:40.702Z,12.77
2022-10-17T18:04:08.797Z,12.73
2022-10-17T18:06:37.577Z,12.76
2022-10-17T18:09:05.551Z,12.79
2022-10-17T18:11:32.230Z,12.77
2022-10-17T18:14:01.447Z,12.74
2022-10-17T18:16:29.952Z,12.69
2022-10-17T18:18:58.797Z,12.52
2022-10-17T18:21:27.985Z,12.56
2022-10-17T18:23:54.618Z,12.45
2022-10-17T18:26:21.352Z,12.41
2022-10-17T18:28:49.523Z,12.44
2022-10-17T18:31:36.083Z,12.40
2022-10-17T18:34:04.540Z,12.19
2022-10-17T18:36:32.805Z,12.18
2022-10-17T18:39:00.466Z,12.19
2022-10-17T18:41:28.180Z,12.15
2022-10-17T18:43:56.643Z,12.17
2022-10-17T18:46:27.362Z,12.11
2022-10-17T18:48:54.311Z,12.07
2022-10-17T18:51:23.317Z,12.02
2022-10-17T18:53:52.983Z,11.94
2022-10-17T18:56:20.578Z,11.89
2022-10-17T18:58:47.662Z,11.87
2022-10-17T19:01:17.670Z,11.88
2022-10-17T19:03:46.487Z,11.92
2022-10-17T19:06:16.195Z,12.05
2022-10-17T19:08:43.735Z,12.03
2022-10-17T19:11:15.439Z,12.01
2022-10-17T19:13:43.301Z,11.97
2022-10-17T19:16:22.733Z,11.95
2022-10-17T19:18:55.458Z,11.92
2022-10-17T19:21:22.554Z,11.93
2022-10-17T19:23:51.304Z,11.96
2022-10-17T19:26:18.736Z,11.97
2022-10-17T19:28:45.661Z,12.01
2022-10-17T19:31:16.827Z,12.03
2022-10-17T19:33:44.863Z,12.04
2022-10-17T19:36:12.768Z,12.07
2022-10-17T19:38:39.743Z,12.04
2022-10-17T19:41:08.086Z,12.05
2022-10-17T19:43:39.775Z,12.09
2022-10-17T19:46:09.465Z,12.07
2022-10-17T19:48:37.094Z,12.07
2022-10-17T19:51:08.490Z,12.07
2022-10-17T19:53:35.282Z,12.08
2022-10-17T19:56:01.968Z,12.02
2022-10-17T19:58:28.720Z,11.94
2022-10-17T20:00:57.666Z,11.99
2022-10-17T20:03:25.243Z,11.99
2022-10-17T20:05:52.054Z,11.93
2022-10-17T20:08:19.179Z,11.98
2022-10-17T20:10:46.258Z,12.04
2022-10-17T20:13:14.008Z,11.96
2022-10-17T20:15:41.171Z,11.94
2022-10-17T20:18:08.108Z,11.93
2022-10-17T20:20:36.084Z,11.87
2022-10-17T20:23:03.550Z,11.79
2022-10-17T20:25:30.590Z,11.81
2022-10-17T20:27:57.329Z,11.79
2022-10-17T20:30:23.987Z,11.75
2022-10-17T20:32:55.137Z,11.66
2022-10-17T20:35:22.365Z,11.59
2022-10-17T20:37:49.038Z,11.51
2022-10-17T20:43:07.042Z,11.46
2022-10-17T20:45:51.516Z,11.48
2022-10-17T20:48:18.885Z,11.35
2022-10-17T20:50:46.042Z,11.33
2022-10-17T20:56:05.324Z,11.19
2022-10-17T20:58:32.230Z,11.22
2022-10-17T21:00:58.853Z,11.19
2022-10-17T21:03:26.738Z,11.05
2022-10-17T21:05:53.554Z,10.97
2022-10-17T21:08:20.470Z,10.88
2022-10-17T21:10:47.116Z,10.80
2022-10-17T21:13:14.282Z,10.82
2022-10-17T21:15:40.915Z,10.94
2022-10-17T21:18:07.577Z,10.92
2022-10-17T21:20:34.390Z,10.81
2022-10-17T21:23:01.016Z,10.78
2022-10-17T21:25:27.668Z,10.69
2022-10-17T21:27:54.311Z,10.70
2022-10-17T21:30:21.701Z,10.82
2022-10-17T21:32:52.128Z,10.89
2022-10-17T21:35:18.968Z,10.82
2022-10-17T21:37:45.568Z,10.69
2022-10-17T21:40:12.749Z,10.66
2022-10-17T21:42:39.461Z,10.56
2022-10-17T21:45:14.989Z,10.49
2022-10-17T21:47:54.977Z,10.46
2022-10-17T21:50:29.829Z,10.43
2022-10-17T21:52:58.510Z,10.48
2022-10-17T21:55:25.278Z,10.49
2022-10-17T21:57:52.008Z,10.51
2022-10-17T22:00:18.802Z,10.54
2022-10-17T22:02:45.637Z,10.58
2022-10-17T22:05:12.378Z,10.63
2022-10-17T22:07:39.135Z,10.68
2022-10-17T22:10:05.999Z,10.71
2022-10-17T22:12:33.060Z,10.65
2022-10-17T22:14:59.950Z,10.56
2022-10-17T22:17:26.648Z,10.54
2022-10-17T22:19:53.321Z,10.56
2022-10-17T22:22:19.954Z,10.53
2022-10-17T22:24:46.646Z,10.61
2022-10-17T22:27:13.289Z,10.60
2022-10-17T22:29:40.047Z,10.65
2022-10-17T22:32:06.690Z,10.69
2022-10-17T22:34:33.314Z,10.69
2022-10-17T22:36:59.949Z,10.69
2022-10-17T22:39:26.650Z,10.72
2022-10-17T22:41:53.286Z,10.74
2022-10-17T22:44:20.007Z,10.72
2022-10-17T22:46:46.682Z,10.65
2022-10-17T22:49:13.458Z,10.45
2022-10-17T22:51:40.137Z,10.42
2022-10-17T22:54:07.115Z,10.46
2022-10-17T22:56:33.787Z,10.42
2022-10-17T22:59:00.695Z,10.45
2022-10-17T23:01:27.348Z,10.50
2022-10-17T23:03:54.215Z,10.50
2022-10-17T23:06:21.360Z,10.55
2022-10-17T23:08:48.908Z,10.59
2022-10-17T23:11:16.050Z,10.60
2022-10-17T23:13:42.759Z,10.49
2022-10-17T23:16:09.721Z,10.42
2022-10-17T23:18:37.955Z,10.41
2022-10-17T23:21:05.132Z,10.38
2022-10-17T23:23:31.832Z,10.36
2022-10-17T23:26:10.526Z,10.19
2022-10-17T23:28:37.867Z,10.08
2022-10-17T23:31:13.731Z,10.04
2022-10-17T23:33:41.515Z,10.02
2022-10-17T23:36:10.573Z,9.98
2022-10-17T23:38:37.840Z,9.97
2022-10-17T23:41:04.658Z,10.04
2022-10-17T23:43:31.947Z,10.08
2022-10-17T23:45:58.550Z,10.17
2022-10-17T23:48:25.272Z,10.20
2022-10-17T23:50:52.048Z,10.27
2022-10-17T23:53:18.738Z,10.25
2022-10-17T23:55:45.470Z,10.14
2022-10-17T23:58:12.129Z,10.13
